Time;durP1;ratioP1;P1;durP2;ratioP2;P2;SDS_P1;SDS_P2;PMS_P1;PMS_P2;Temp;Humidity;BMP_temperature;BMP_pressure;BME280_temperature;BME280_humidity;BME280_pressure;Samples;Min_cycle;Max_cycle;Signal;HPM_P1;HPM_P2
2021/05/14 00:01:57;;;;;;;61.45;34.00;;;12.20;99.90;;;;;;4430562;28;655603;-71
2021/05/14 00:04:44;;;;;;;58.97;30.30;;;12.20;99.90;;;;;;4453742;28;655874;-71
2021/05/14 00:07:31;;;;;;;62.47;32.90;;;12.20;99.90;;;;;;4447286;28;655878;-71
2021/05/14 00:10:20;;;;;;;58.43;32.03;;;12.30;99.90;;;;;;4426687;28;655230;-72
2021/05/14 00:13:08;;;;;;;59.30;31.60;;;12.20;99.90;;;;;;4446038;28;655964;-72
2021/05/14 00:15:56;;;;;;;61.63;32.83;;;12.30;99.90;;;;;;4453391;28;656677;-72
2021/05/14 00:18:43;;;;;;;60.90;31.40;;;12.20;99.90;;;;;;4431496;28;655256;-71
2021/05/14 00:21:30;;;;;;;62.07;31.23;;;12.20;99.90;;;;;;4440036;28;656481;-71
2021/05/14 00:24:17;;;;;;;58.40;30.33;;;12.20;99.90;;;;;;4432820;28;655500;-72
2021/05/14 00:27:05;;;;;;;61.45;33.45;;;12.30;99.90;;;;;;4454281;28;655977;-71
2021/05/14 00:29:52;;;;;;;64.63;32.17;;;12.20;99.90;;;;;;4438599;28;655576;-71
2021/05/14 00:32:40;;;;;;;59.13;27.10;;;12.30;99.90;;;;;;4447115;28;656310;-71
2021/05/14 00:35:28;;;;;;;65.47;32.23;;;12.20;99.90;;;;;;4431249;28;656130;-71
2021/05/14 00:38:15;;;;;;;58.60;32.03;;;12.20;99.90;;;;;;4448502;28;656192;-71
2021/05/14 00:41:02;;;;;;;67.13;32.43;;;12.20;99.90;;;;;;4446882;28;655934;-72
2021/05/14 00:43:49;;;;;;;69.63;33.07;;;12.20;99.90;;;;;;4453412;28;655122;-71
2021/05/14 00:46:37;;;;;;;74.17;31.73;;;12.20;99.90;;;;;;4449631;28;655612;-71
2021/05/14 00:49:25;;;;;;;74.22;31.38;;;12.20;99.90;;;;;;4429015;28;655455;-71
2021/05/14 00:52:14;;;;;;;71.80;29.47;;;12.10;99.90;;;;;;4440510;28;655575;-72
2021/05/14 00:55:01;;;;;;;71.67;32.17;;;12.10;99.90;;;;;;4444796;28;656224;-71
2021/05/14 00:57:49;;;;;;;67.53;31.10;;;12.20;99.90;;;;;;4424050;28;655828;-72
2021/05/14 01:00:36;;;;;;;64.53;30.00;;;12.20;99.90;;;;;;4448644;28;655949;-71
2021/05/14 01:03:23;;;;;;;64.03;30.23;;;12.10;99.90;;;;;;4429020;28;655399;-71
2021/05/14 01:06:11;;;;;;;65.80;30.77;;;12.10;99.90;;;;;;4444831;28;656389;-71
2021/05/14 01:08:59;;;;;;;61.90;31.40;;;12.10;99.90;;;;;;4425059;28;655653;-72
2021/05/14 01:11:46;;;;;;;56.20;31.37;;;12.10;99.90;;;;;;4441998;28;656063;-71
2021/05/14 01:14:33;;;;;;;61.03;29.67;;;12.20;99.90;;;;;;4430221;28;655546;-71
2021/05/14 01:17:20;;;;;;;64.13;31.50;;;12.20;99.90;;;;;;4448571;28;656528;-71
2021/05/14 01:20:08;;;;;;;53.85;28.85;;;12.10;99.90;;;;;;4429611;28;655529;-72
2021/05/14 01:22:56;;;;;;;61.43;29.40;;;12.10;99.90;;;;;;4442775;28;655707;-71
2021/05/14 01:25:43;;;;;;;69.10;32.40;;;12.10;99.90;;;;;;4430227;28;655757;-71
2021/05/14 01:28:30;;;;;;;61.95;30.83;;;12.10;99.90;;;;;;4453183;28;655994;-71
2021/05/14 01:31:17;;;;;;;69.83;31.80;;;12.10;99.90;;;;;;4430195;28;655277;-71
2021/05/14 01:34:07;;;;;;;64.73;29.93;;;12.10;99.90;;;;;;4447360;28;655853;-71
2021/05/14 01:36:54;;;;;;;68.43;30.30;;;12.10;99.90;;;;;;4422552;28;655413;-72
2021/05/14 01:39:42;;;;;;;61.33;29.67;;;12.10;99.90;;;;;;4448518;28;656168;-71
2021/05/14 01:42:29;;;;;;;57.00;29.57;;;12.10;99.90;;;;;;4429779;28;655762;-72
2021/05/14 01:45:16;;;;;;;68.20;32.03;;;12.10;99.90;;;;;;4452283;28;655075;-71
2021/05/14 01:48:04;;;;;;;59.97;30.67;;;12.00;99.90;;;;;;4421396;28;655132;-72
2021/05/14 01:50:51;;;;;;;57.33;31.73;;;12.00;99.90;;;;;;4447886;28;655506;-71
2021/05/14 01:53:38;;;;;;;66.53;32.73;;;12.00;99.90;;;;;;4428200;28;656829;-71
2021/05/14 01:56:26;;;;;;;64.03;31.63;;;12.00;99.90;;;;;;4447159;28;656874;-71
2021/05/14 01:59:14;;;;;;;69.67;32.70;;;12.00;99.90;;;;;;4431267;28;656676;-74
2021/05/14 02:02:01;;;;;;;70.43;32.77;;;12.00;99.90;;;;;;4450741;28;656955;-71
2021/05/14 02:04:48;;;;;;;74.63;32.60;;;12.00;99.90;;;;;;4431333;28;656181;-71
2021/05/14 02:07:35;;;;;;;62.83;31.57;;;12.00;99.90;;;;;;4453765;28;657490;-72
2021/05/14 02:10:22;;;;;;;70.37;32.00;;;11.90;99.90;;;;;;4431536;28;656283;-72
2021/05/14 02:13:10;;;;;;;57.43;28.53;;;11.90;99.90;;;;;;4448306;28;657002;-71
2021/05/14 02:15:58;;;;;;;67.00;34.07;;;11.90;99.90;;;;;;4431199;28;656626;-72
2021/05/14 02:18:45;;;;;;;61.53;31.67;;;11.80;99.90;;;;;;4450863;28;657243;-71
2021/05/14 02:21:32;;;;;;;67.23;31.07;;;11.80;99.90;;;;;;4440597;28;656614;-72
2021/05/14 02:24:19;;;;;;;69.05;32.38;;;11.80;99.90;;;;;;4454134;28;656200;-71
2021/05/14 02:27:07;;;;;;;66.33;30.57;;;11.90;99.90;;;;;;4450175;28;657119;-71
2021/05/14 02:29:55;;;;;;;65.63;32.33;;;11.90;99.90;;;;;;4426551;28;656900;-71
2021/05/14 02:32:42;;;;;;;70.53;31.47;;;11.90;99.90;;;;;;4443768;28;657092;-72
2021/05/14 02:35:29;;;;;;;62.83;30.17;;;11.80;99.90;;;;;;4449213;28;657618;-71
2021/05/14 02:38:17;;;;;;;63.97;31.20;;;11.90;99.90;;;;;;4450451;28;656201;-71
2021/05/14 02:41:08;;;;;;;61.43;31.17;;;11.90;99.90;;;;;;4427281;28;657178;-71
2021/05/14 02:43:55;;;;;;;62.67;32.00;;;11.90;99.90;;;;;;4430615;28;657304;-71
2021/05/14 02:46:43;;;;;;;71.30;33.40;;;11.80;99.90;;;;;;4435859;28;656092;-72
2021/05/14 02:49:30;;;;;;;69.03;32.43;;;11.80;99.90;;;;;;4452995;28;657548;-71
2021/05/14 02:52:18;;;;;;;70.63;32.37;;;11.70;99.90;;;;;;4430644;28;656738;-71
2021/05/14 02:55:05;;;;;;;70.17;31.83;;;11.70;99.90;;;;;;4449157;28;657205;-71
2021/05/14 02:57:53;;;;;;;70.07;32.93;;;11.70;99.90;;;;;;4430995;28;656742;-71
2021/05/14 03:00:40;;;;;;;66.60;31.90;;;11.70;99.90;;;;;;4447058;28;657512;-70
2021/05/14 03:03:28;;;;;;;59.07;26.93;;;11.60;99.90;;;;;;4430914;28;657017;-71
2021/05/14 03:06:16;;;;;;;66.40;31.40;;;11.70;99.90;;;;;;4449265;28;657062;-70
2021/05/14 03:09:03;;;;;;;73.73;32.93;;;11.60;99.90;;;;;;4430613;28;656774;-71
2021/05/14 03:11:50;;;;;;;70.77;31.70;;;11.60;99.90;;;;;;4444954;28;656742;-71
2021/05/14 03:14:38;;;;;;;72.10;32.42;;;11.60;99.90;;;;;;4424602;28;657090;-71
2021/05/14 03:17:25;;;;;;;70.97;33.53;;;11.60;99.90;;;;;;4444387;28;657382;-70
2021/05/14 03:20:14;;;;;;;79.93;33.73;;;11.50;99.90;;;;;;4444831;28;657281;-71
2021/05/14 03:23:01;;;;;;;74.77;32.87;;;11.50;99.90;;;;;;4445544;28;656782;-71
2021/05/14 03:25:48;;;;;;;86.20;34.60;;;11.50;99.90;;;;;;4430679;28;656706;-71
2021/05/14 03:28:35;;;;;;;62.10;27.57;;;11.50;99.90;;;;;;4452519;28;657155;-70
2021/05/14 03:31:23;;;;;;;79.68;34.50;;;11.50;99.90;;;;;;4434526;28;656626;-71
2021/05/14 03:34:10;;;;;;;84.57;34.17;;;11.50;99.90;;;;;;4448907;28;657182;-71
2021/05/14 03:36:58;;;;;;;75.27;34.23;;;11.50;99.90;;;;;;4433963;28;656885;-71
2021/05/14 03:39:50;;;;;;;81.80;32.37;;;11.50;99.90;;;;;;4448358;28;657397;-71
2021/05/14 03:42:37;;;;;;;78.83;32.07;;;11.60;99.90;;;;;;4417526;28;656786;-71
2021/05/14 03:45:24;;;;;;;69.97;30.47;;;11.60;99.90;;;;;;4453175;28;656702;-70
2021/05/14 03:48:20;;;;;;;81.47;34.07;;;11.50;99.90;;;;;;4453084;28;655852;-71
2021/05/14 03:51:08;;;;;;;78.17;33.60;;;11.50;99.90;;;;;;4402429;28;656610;-71
2021/05/14 03:53:56;;;;;;;66.60;32.37;;;11.60;99.90;;;;;;4442529;28;657276;-71
2021/05/14 03:56:43;;;;;;;68.90;29.17;;;11.60;99.90;;;;;;4428816;28;656456;-71
2021/05/14 03:59:30;;;;;;;83.40;34.43;;;11.50;99.90;;;;;;4452231;28;657241;-71
2021/05/14 04:02:17;;;;;;;75.13;32.27;;;11.50;99.90;;;;;;4429929;28;656916;-71
2021/05/14 04:05:05;;;;;;;79.20;32.07;;;11.50;99.90;;;;;;4448808;28;658141;-71
2021/05/14 04:07:53;;;;;;;77.63;32.43;;;11.60;99.90;;;;;;4422621;28;657003;-71
2021/05/14 04:11:01;;;;;;;80.90;32.07;;;11.60;99.90;;;;;;4451558;28;658014;-70
2021/05/14 04:16:53;;;;;;;75.60;32.43;;;11.60;99.90;;;;;;4402417;28;656910;-71
2021/05/14 04:19:41;;;;;;;89.17;32.43;;;11.60;99.90;;;;;;4448632;28;657154;-71
2021/05/14 04:22:28;;;;;;;71.43;29.33;;;11.50;99.90;;;;;;4429841;28;656649;-70
2021/05/14 04:25:15;;;;;;;83.20;29.97;;;11.60;99.90;;;;;;4449075;28;656326;-71
2021/05/14 04:28:04;;;;;;;81.67;33.57;;;11.60;99.90;;;;;;4422725;28;658004;-70
2021/05/14 04:30:51;;;;;;;70.27;30.90;;;11.60;99.90;;;;;;4448264;28;656488;-71
2021/05/14 04:33:39;;;;;;;83.70;31.27;;;11.60;99.90;;;;;;4428569;28;656860;-70
2021/05/14 04:36:26;;;;;;;81.83;34.87;;;11.60;99.90;;;;;;4443244;28;656833;-70
2021/05/14 04:39:13;;;;;;;72.63;31.07;;;11.60;99.90;;;;;;4428878;28;657041;-70
2021/05/14 04:42:00;;;;;;;70.93;33.90;;;11.60;99.90;;;;;;4446553;28;657529;-71
2021/05/14 04:44:48;;;;;;;77.00;33.73;;;11.60;99.90;;;;;;4428883;28;657385;-71
2021/05/14 04:47:36;;;;;;;83.80;35.63;;;11.60;99.90;;;;;;4443987;28;657128;-71
2021/05/14 04:50:23;;;;;;;78.67;34.00;;;11.60;99.90;;;;;;4428431;28;656986;-71
2021/05/14 04:53:13;;;;;;;80.47;33.13;;;11.60;99.90;;;;;;4450050;28;657614;-71
2021/05/14 04:56:00;;;;;;;61.43;25.67;;;11.60;99.90;;;;;;4424966;28;657659;-71
2021/05/14 04:58:47;;;;;;;73.80;32.03;;;11.60;99.90;;;;;;4432967;28;656530;-71
2021/05/14 05:01:35;;;;;;;73.15;30.58;;;11.60;99.90;;;;;;4446602;28;656724;-71
2021/05/14 05:04:23;;;;;;;72.67;31.20;;;11.60;99.90;;;;;;4427507;28;656934;-70
2021/05/14 05:07:10;;;;;;;70.80;31.37;;;11.60;99.90;;;;;;4447548;28;657368;-70
2021/05/14 05:09:57;;;;;;;73.83;31.23;;;11.60;99.90;;;;;;4442212;28;656710;-71
2021/05/14 05:12:45;;;;;;;75.10;31.27;;;11.60;99.90;;;;;;4447465;28;657458;-71
2021/05/14 05:15:32;;;;;;;68.27;29.20;;;11.50;99.90;;;;;;4445490;28;655924;-71
2021/05/14 05:18:20;;;;;;;69.90;30.97;;;11.60;99.90;;;;;;4425009;28;657673;-71
2021/05/14 05:21:07;;;;;;;73.77;31.23;;;11.60;99.90;;;;;;4433620;28;657004;-71
2021/05/14 05:23:55;;;;;;;76.77;32.33;;;11.60;99.90;;;;;;4452810;28;656928;-71
2021/05/14 05:26:42;;;;;;;64.87;31.13;;;11.60;99.90;;;;;;4450934;28;656032;-71
2021/05/14 05:29:29;;;;;;;59.13;26.73;;;11.80;99.90;;;;;;4417971;28;657702;-70
2021/05/14 05:32:16;;;;;;;60.47;26.00;;;11.80;99.90;;;;;;4449533;28;656303;-70
2021/05/14 05:35:06;;;;;;;60.10;25.73;;;11.70;99.90;;;;;;4430662;28;657457;-71
2021/05/14 05:37:54;;;;;;;63.57;29.67;;;11.80;99.90;;;;;;4428235;28;657101;-70
2021/05/14 05:40:41;;;;;;;59.00;28.00;;;11.80;99.90;;;;;;4447424;28;656387;-70
2021/05/14 05:43:28;;;;;;;59.57;28.67;;;11.80;99.90;;;;;;4431843;28;656979;-71
2021/05/14 05:46:15;;;;;;;62.60;29.20;;;11.90;99.90;;;;;;4450892;28;657006;-70
2021/05/14 05:49:03;;;;;;;58.43;27.80;;;11.90;99.90;;;;;;4431624;28;656781;-71
2021/05/14 05:51:51;;;;;;;58.53;26.97;;;12.00;99.90;;;;;;4455153;28;657735;-71
2021/05/14 05:54:38;;;;;;;54.37;26.97;;;12.00;99.90;;;;;;4431476;28;656489;-71
2021/05/14 05:57:25;;;;;;;50.93;25.80;;;12.00;99.90;;;;;;4450453;28;657322;-71
2021/05/14 06:00:14;;;;;;;49.57;24.83;;;12.00;99.90;;;;;;4427693;28;657068;-71
2021/05/14 06:03:03;;;;;;;48.03;24.77;;;11.90;99.90;;;;;;4454919;28;657013;-71
2021/05/14 06:05:50;;;;;;;45.77;23.97;;;11.90;99.90;;;;;;4426938;28;657072;-70
2021/05/14 06:08:39;;;;;;;47.57;24.60;;;11.90;99.90;;;;;;4442986;28;656822;-71
2021/05/14 06:11:26;;;;;;;44.77;23.20;;;12.00;99.90;;;;;;4450164;28;656627;-70
2021/05/14 06:14:13;;;;;;;47.10;23.90;;;12.00;99.90;;;;;;4425186;28;656206;-71
2021/05/14 06:17:00;;;;;;;40.53;21.67;;;12.10;99.90;;;;;;4450736;28;656776;-71
2021/05/14 06:19:50;;;;;;;44.00;21.73;;;12.20;99.90;;;;;;4428827;28;656805;-71
2021/05/14 06:22:38;;;;;;;43.43;22.03;;;12.20;99.90;;;;;;4431580;28;656976;-66
2021/05/14 06:25:26;;;;;;;41.30;21.70;;;12.20;99.90;;;;;;4448123;28;657443;-65
2021/05/14 06:28:17;;;;;;;43.17;21.13;;;12.20;99.90;;;;;;4428703;28;656856;-66
2021/05/14 06:31:04;;;;;;;39.93;20.50;;;12.20;99.90;;;;;;4432011;28;657123;-66
2021/05/14 06:33:52;;;;;;;41.67;20.70;;;12.20;99.90;;;;;;4449202;28;656796;-65
2021/05/14 06:36:39;;;;;;;39.70;20.97;;;12.20;99.90;;;;;;4427219;28;657504;-65
2021/05/14 06:39:26;;;;;;;40.10;20.60;;;12.30;99.90;;;;;;4450392;28;656792;-65
2021/05/14 06:42:14;;;;;;;43.53;21.70;;;12.30;99.90;;;;;;4430750;28;656696;-65
2021/05/14 06:45:02;;;;;;;43.58;20.88;;;12.20;99.90;;;;;;4450289;28;656589;-65
2021/05/14 06:47:49;;;;;;;45.73;20.43;;;12.30;99.90;;;;;;4431353;28;657658;-65
2021/05/14 06:50:36;;;;;;;48.67;23.60;;;12.30;99.90;;;;;;4449035;28;656292;-66
2021/05/14 06:53:24;;;;;;;37.53;19.67;;;12.40;99.90;;;;;;4430180;28;656276;-65
2021/05/14 06:56:12;;;;;;;46.97;22.37;;;12.50;99.90;;;;;;4465212;28;656344;-65
2021/05/14 06:59:00;;;;;;;47.50;22.60;;;12.50;99.90;;;;;;4430544;28;657207;-65
2021/05/14 07:01:47;;;;;;;48.63;23.80;;;12.60;99.90;;;;;;4443260;28;656646;-66
2021/05/14 07:04:34;;;;;;;43.77;22.93;;;12.60;99.90;;;;;;4436345;28;657667;-65
2021/05/14 07:07:22;;;;;;;45.00;23.73;;;12.70;99.90;;;;;;4433748;28;656736;-66
2021/05/14 07:10:10;;;;;;;49.00;24.00;;;12.70;99.90;;;;;;4424146;28;658014;-65
2021/05/14 07:12:58;;;;;;;41.23;20.53;;;12.70;99.90;;;;;;4430369;28;656839;-66
2021/05/14 07:15:47;;;;;;;48.10;23.20;;;12.80;99.90;;;;;;4450280;28;657187;-65
2021/05/14 07:18:34;;;;;;;44.97;23.60;;;12.90;99.90;;;;;;4431552;28;657601;-65
2021/05/14 07:21:22;;;;;;;43.60;23.80;;;12.90;99.90;;;;;;4445603;28;656597;-65
2021/05/14 07:24:10;;;;;;;43.57;23.03;;;13.00;99.90;;;;;;4431123;28;657324;-66
2021/05/14 07:26:57;;;;;;;46.63;22.40;;;13.30;99.90;;;;;;4442671;28;656717;-68
2021/05/14 07:29:45;;;;;;;45.03;23.10;;;13.50;99.90;;;;;;4450486;28;657810;-65
2021/05/14 07:32:33;;;;;;;42.10;23.00;;;13.70;99.90;;;;;;4443068;28;656785;-67
2021/05/14 07:35:21;;;;;;;39.17;22.47;;;13.90;99.90;;;;;;4447677;28;657731;-65
2021/05/14 07:38:08;;;;;;;39.53;22.50;;;14.00;99.90;;;;;;4430531;28;657713;-66
2021/05/14 07:40:55;;;;;;;42.80;21.90;;;14.00;99.90;;;;;;4450350;28;657335;-66
2021/05/14 07:43:42;;;;;;;43.60;21.97;;;14.10;99.90;;;;;;4427385;28;656636;-67
2021/05/14 07:46:30;;;;;;;49.13;24.17;;;14.10;99.90;;;;;;4453893;28;656562;-66
2021/05/14 07:49:18;;;;;;;47.60;23.93;;;14.10;99.90;;;;;;4438649;28;656788;-66
2021/05/14 07:52:05;;;;;;;52.70;27.33;;;14.10;99.90;;;;;;4454102;28;657660;-66
2021/05/14 07:54:53;;;;;;;58.83;26.73;;;14.10;99.90;;;;;;4430020;28;656681;-66
2021/05/14 07:57:40;;;;;;;54.70;27.97;;;14.00;99.90;;;;;;4445314;28;658249;-66
2021/05/14 08:00:27;;;;;;;51.07;28.90;;;14.00;99.90;;;;;;4438619;28;656632;-67
2021/05/14 08:03:15;;;;;;;50.33;26.60;;;14.00;99.90;;;;;;4450338;28;657684;-65
2021/05/14 08:06:03;;;;;;;53.60;27.80;;;14.00;99.90;;;;;;4438829;28;656364;-67
2021/05/14 08:08:51;;;;;;;48.80;25.27;;;14.00;99.90;;;;;;4448451;28;657618;-65
2021/05/14 08:11:38;;;;;;;44.92;25.88;;;14.10;99.90;;;;;;4424886;28;656753;-65
2021/05/14 08:14:26;;;;;;;47.50;25.13;;;14.30;99.90;;;;;;4444677;28;656859;-66
2021/05/14 08:17:13;;;;;;;42.47;21.80;;;14.30;99.90;;;;;;4423572;28;656585;-66
2021/05/14 08:20:01;;;;;;;47.20;25.63;;;14.40;99.90;;;;;;4452290;28;657402;-66
2021/05/14 08:22:49;;;;;;;44.53;25.07;;;14.40;99.90;;;;;;4428356;28;657749;-66
2021/05/14 08:25:36;;;;;;;42.77;23.00;;;14.40;99.90;;;;;;4442241;28;656693;-65
2021/05/14 08:28:23;;;;;;;41.87;24.03;;;14.30;99.90;;;;;;4429427;28;656847;-66
2021/05/14 08:31:11;;;;;;;43.43;24.63;;;14.30;99.90;;;;;;4449211;28;657174;-65
2021/05/14 08:33:58;;;;;;;41.47;22.90;;;14.30;99.90;;;;;;4429982;28;656923;-66
2021/05/14 08:36:45;;;;;;;48.97;23.30;;;14.50;99.90;;;;;;4448548;28;657127;-65
2021/05/14 08:39:33;;;;;;;42.63;23.13;;;14.60;99.90;;;;;;4433353;28;656567;-67
2021/05/14 08:42:20;;;;;;;39.43;23.60;;;14.90;99.90;;;;;;4441692;28;657561;-65
2021/05/14 08:45:09;;;;;;;40.27;23.43;;;15.40;99.90;;;;;;4427424;28;657976;-67
2021/05/14 08:47:56;;;;;;;36.03;21.23;;;15.80;99.90;;;;;;4448604;28;656805;-65
2021/05/14 08:50:43;;;;;;;41.47;22.13;;;15.80;99.90;;;;;;4429190;28;656404;-66
2021/05/14 08:53:31;;;;;;;45.93;23.60;;;15.50;99.90;;;;;;4448613;28;657921;-66
2021/05/14 08:56:22;;;;;;;47.30;24.80;;;15.20;99.90;;;;;;4426340;28;656709;-66
2021/05/14 08:59:09;;;;;;;44.50;24.20;;;15.10;99.90;;;;;;4435265;28;656958;-66
2021/05/14 09:01:56;;;;;;;38.57;22.23;;;15.10;99.90;;;;;;4441905;28;656686;-66
2021/05/14 09:04:43;;;;;;;41.47;22.03;;;15.40;99.90;;;;;;4429463;28;657230;-66
2021/05/14 09:07:30;;;;;;;38.95;22.27;;;15.50;99.90;;;;;;4448634;28;656588;-67
2021/05/14 09:10:17;;;;;;;34.57;20.90;;;15.70;99.90;;;;;;4431893;28;656632;-67
2021/05/14 09:13:12;;;;;;;33.30;19.60;;;15.50;99.90;;;;;;4450504;28;657133;-66
2021/05/14 09:15:59;;;;;;;34.37;21.40;;;15.30;99.90;;;;;;4413555;28;657028;-65
2021/05/14 09:18:46;;;;;;;33.27;18.50;;;15.20;99.90;;;;;;4448332;28;656737;-66
2021/05/14 09:21:33;;;;;;;39.50;19.53;;;15.40;99.90;;;;;;4429287;28;656708;-65
2021/05/14 09:24:27;;;;;;;33.90;20.10;;;15.20;99.90;;;;;;4447611;28;656859;-65
2021/05/14 09:27:18;;;;;;;33.83;18.03;;;15.30;99.90;;;;;;4402055;28;657986;-66
2021/05/14 09:30:10;;;;;;;32.80;18.43;;;15.20;99.90;;;;;;4403346;28;656382;-66
2021/05/14 09:32:57;;;;;;;38.83;20.03;;;15.10;99.90;;;;;;4405912;28;656708;-67
2021/05/14 09:35:44;;;;;;;36.43;20.07;;;15.00;99.90;;;;;;4446430;28;656469;-65
2021/05/14 09:38:42;;;;;;;36.23;18.67;;;14.80;99.90;;;;;;4445029;28;655971;-66
2021/05/14 09:41:34;;;;;;;33.83;18.87;;;14.80;99.90;;;;;;4428482;28;656621;-66
2021/05/14 09:44:23;;;;;;;32.90;19.00;;;14.80;99.90;;;;;;4424725;28;657456;-66
2021/05/14 09:47:11;;;;;;;36.37;19.50;;;14.80;99.90;;;;;;4425421;28;656792;-66
2021/05/14 09:49:58;;;;;;;28.80;15.90;;;14.90;99.90;;;;;;4424279;28;656781;-65
2021/05/14 09:53:00;;;;;;;34.77;20.20;;;15.00;99.90;;;;;;4448676;28;657786;-65
2021/05/14 09:55:50;;;;;;;37.80;19.53;;;14.90;99.90;;;;;;4412082;28;656721;-67
2021/05/14 09:58:38;;;;;;;37.90;18.23;;;14.90;99.90;;;;;;4431117;28;656685;-66
2021/05/14 10:01:25;;;;;;;42.57;21.53;;;15.00;99.90;;;;;;4446961;28;657342;-67
2021/05/14 10:04:13;;;;;;;37.07;19.07;;;15.20;99.90;;;;;;4432326;28;657142;-67
2021/05/14 10:07:01;;;;;;;32.37;17.23;;;15.50;99.90;;;;;;4446888;28;657404;-66
2021/05/14 10:09:51;;;;;;;31.30;17.73;;;15.60;99.90;;;;;;4428346;28;656486;-66
2021/05/14 10:12:38;;;;;;;31.50;15.70;;;15.50;99.90;;;;;;4427968;28;656905;-66
2021/05/14 10:15:26;;;;;;;34.77;18.40;;;15.60;99.90;;;;;;4447479;28;657562;-68
2021/05/14 10:18:16;;;;;;;29.57;17.60;;;15.60;99.90;;;;;;4427582;28;656614;-66
2021/05/14 10:21:07;;;;;;;26.80;15.43;;;15.80;99.90;;;;;;4428651;28;656476;-66
2021/05/14 10:23:54;;;;;;;24.47;14.60;;;16.00;99.90;;;;;;4419908;28;657107;-67
2021/05/14 10:26:42;;;;;;;22.13;14.03;;;16.30;99.90;;;;;;4450605;28;656495;-66
2021/05/14 10:29:37;;;;;;;21.08;13.45;;;16.50;99.90;;;;;;4431601;28;656843;-65
2021/05/14 10:32:51;;;;;;;24.50;14.23;;;16.50;99.90;;;;;;4404819;28;657232;-66
2021/05/14 10:35:39;;;;;;;21.17;12.37;;;16.30;99.90;;;;;;4402034;28;656871;-66
2021/05/14 10:38:31;;;;;;;20.77;13.13;;;16.30;99.90;;;;;;4446898;28;656428;-65
2021/05/14 10:41:25;;;;;;;24.93;14.23;;;16.50;99.90;;;;;;4427463;28;656382;-66
2021/05/14 10:44:12;;;;;;;20.17;11.70;;;16.80;99.90;;;;;;4408182;28;656218;-67
2021/05/14 10:47:00;;;;;;;22.17;14.33;;;16.80;99.90;;;;;;4450219;28;657982;-66
2021/05/14 10:49:49;;;;;;;21.97;13.13;;;16.70;99.90;;;;;;4447256;28;656719;-67
2021/05/14 10:52:36;;;;;;;17.87;11.83;;;16.60;99.90;;;;;;4447940;28;656621;-65
2021/05/14 10:55:31;;;;;;;21.47;11.47;;;16.50;99.90;;;;;;4424816;28;657277;-65
2021/05/14 10:58:46;;;;;;;17.20;10.90;;;16.30;99.90;;;;;;4404253;28;657077;-66
2021/05/14 11:01:34;;;;;;;20.73;12.37;;;16.60;99.90;;;;;;4403742;28;657007;-67
2021/05/14 11:04:42;;;;;;;18.93;10.83;;;16.80;99.90;;;;;;4443443;28;656472;-66
2021/05/14 11:07:37;;;;;;;18.70;11.50;;;17.20;99.90;;;;;;4402613;28;656889;-66
2021/05/14 11:10:33;;;;;;;19.73;11.93;;;17.20;99.90;;;;;;4422112;28;657710;-66
2021/05/14 11:13:40;;;;;;;19.50;13.77;;;17.20;99.90;;;;;;4403845;28;657106;-67
2021/05/14 11:16:31;;;;;;;23.23;13.40;;;16.90;99.90;;;;;;4413446;28;656706;-67
2021/05/14 11:19:26;;;;;;;17.53;11.67;;;16.80;99.90;;;;;;4428309;28;656855;-67
2021/05/14 11:22:14;;;;;;;19.63;11.60;;;16.60;99.90;;;;;;4403735;28;657160;-66
2021/05/14 11:25:03;;;;;;;22.53;11.37;;;16.20;99.90;;;;;;4448391;28;656561;-66
2021/05/14 11:27:55;;;;;;;18.53;10.00;;;16.20;99.90;;;;;;4424056;28;657986;-66
2021/05/14 11:30:44;;;;;;;9.67;7.00;;;17.30;99.90;;;;;;4410894;28;656802;-67
2021/05/14 11:33:31;;;;;;;13.43;8.67;;;17.90;99.90;;;;;;4451251;28;654061;-66
2021/05/14 11:36:18;;;;;;;10.97;7.17;;;17.50;99.90;;;;;;4424145;28;656054;-66
2021/05/14 11:39:06;;;;;;;12.43;8.03;;;17.20;99.90;;;;;;4450500;28;656204;-65
2021/05/14 11:42:02;;;;;;;11.43;7.03;;;17.00;99.90;;;;;;4426367;28;655915;-66
2021/05/14 11:45:01;;;;;;;8.77;5.90;;;16.70;99.90;;;;;;4403688;28;655680;-65
2021/05/14 11:47:53;;;;;;;9.00;5.77;;;16.40;99.90;;;;;;4428469;28;654641;-65
2021/05/14 11:50:41;;;;;;;9.50;6.70;;;16.10;99.90;;;;;;4420947;28;655101;-65
2021/05/14 11:53:31;;;;;;;12.20;6.57;;;15.80;99.90;;;;;;4428501;28;654435;-67
2021/05/14 11:56:18;;;;;;;10.57;6.33;;;15.70;99.90;;;;;;4431271;28;655408;-65
2021/05/14 11:59:05;;;;;;;10.07;5.87;;;15.60;99.90;;;;;;4448522;28;656376;-66
2021/05/14 12:01:53;;;;;;;11.60;4.73;;;15.80;99.90;;;;;;4433871;28;655871;-66
2021/05/14 12:04:51;;;;;;;9.50;6.33;;;15.50;99.90;;;;;;4449394;28;656049;-66
2021/05/14 12:07:39;;;;;;;10.33;6.23;;;15.70;99.90;;;;;;4408398;28;655840;-66
2021/05/14 12:10:26;;;;;;;10.87;7.17;;;15.60;99.90;;;;;;4449664;28;655541;-67
2021/05/14 12:13:14;;;;;;;11.07;6.80;;;15.70;99.90;;;;;;4430837;28;655884;-65
2021/05/14 12:16:01;;;;;;;13.47;8.63;;;15.70;99.90;;;;;;4443322;28;656637;-66
2021/05/14 12:18:50;;;;;;;13.43;7.53;;;15.80;99.90;;;;;;4430830;28;655376;-66
2021/05/14 12:21:38;;;;;;;14.43;8.50;;;15.70;99.90;;;;;;4433318;28;655970;-67
2021/05/14 12:24:25;;;;;;;12.70;8.00;;;15.60;99.90;;;;;;4445049;28;656384;-65
2021/05/14 12:27:13;;;;;;;13.70;6.87;;;15.60;99.90;;;;;;4425533;28;655816;-66
2021/05/14 12:30:00;;;;;;;10.87;6.90;;;15.70;99.90;;;;;;4443544;28;656162;-65
2021/05/14 12:32:55;;;;;;;10.53;6.80;;;15.50;99.90;;;;;;4424593;28;656103;-67
2021/05/14 12:35:54;;;;;;;13.17;6.73;;;15.60;99.90;;;;;;4409862;28;655592;-68
2021/05/14 12:38:42;;;;;;;11.07;6.20;;;15.50;99.90;;;;;;4426842;28;655616;-65
2021/05/14 12:41:31;;;;;;;13.53;7.27;;;15.20;99.90;;;;;;4426452;28;657695;-66
2021/05/14 12:44:19;;;;;;;12.73;8.17;;;14.80;99.90;;;;;;4426142;28;655812;-65
2021/05/14 12:47:09;;;;;;;15.90;8.37;;;14.30;99.90;;;;;;4443126;28;656098;-65
2021/05/14 12:49:57;;;;;;;11.37;7.57;;;14.10;99.90;;;;;;4426144;28;655436;-65
2021/05/14 12:52:48;;;;;;;11.40;7.97;;;14.10;99.90;;;;;;4428942;28;655844;-66
2021/05/14 12:55:41;;;;;;;14.57;8.25;;;14.20;99.90;;;;;;4430380;28;655884;-65
2021/05/14 12:58:28;;;;;;;11.20;7.53;;;14.30;99.90;;;;;;4399970;28;656234;-66
2021/05/14 13:01:23;;;;;;;15.43;8.23;;;14.20;99.90;;;;;;4435649;28;656312;-66
2021/05/14 13:04:11;;;;;;;12.67;8.70;;;14.10;99.90;;;;;;4426824;28;656284;-65
2021/05/14 13:07:02;;;;;;;14.67;9.07;;;14.10;99.90;;;;;;4430056;28;655884;-66
2021/05/14 13:09:50;;;;;;;13.57;9.27;;;14.10;99.90;;;;;;4430078;28;656152;-65
2021/05/14 13:12:37;;;;;;;15.63;10.07;;;14.10;99.90;;;;;;4430614;28;655395;-66
2021/05/14 13:15:25;;;;;;;20.87;12.03;;;14.00;99.90;;;;;;4451916;28;657135;-65
2021/05/14 13:18:23;;;;;;;24.33;13.30;;;13.90;99.90;;;;;;4438570;28;657819;-67
2021/05/14 13:21:11;;;;;;;26.00;13.60;;;14.10;99.90;;;;;;4419501;28;657208;-66
2021/05/14 13:23:58;;;;;;;26.70;15.33;;;14.70;99.90;;;;;;4425300;28;657169;-65
2021/05/14 13:26:46;;;;;;;21.27;11.90;;;15.60;99.90;;;;;;4449930;28;656897;-65
2021/05/14 13:29:33;;;;;;;24.07;14.27;;;16.10;99.90;;;;;;4424184;28;656499;-65
2021/05/14 13:32:20;;;;;;;29.33;15.80;;;16.40;99.90;;;;;;4448664;28;657556;-65
2021/05/14 13:35:09;;;;;;;29.10;16.73;;;16.40;99.90;;;;;;4429247;28;657059;-67
2021/05/14 13:37:56;;;;;;;29.03;17.37;;;15.90;99.90;;;;;;4447786;28;657423;-65
2021/05/14 13:40:45;;;;;;;29.47;16.50;;;16.00;99.90;;;;;;4424535;28;656516;-67
2021/05/14 13:43:33;;;;;;;31.47;18.43;;;15.80;99.90;;;;;;4451948;28;656327;-66
2021/05/14 13:46:20;;;;;;;40.93;20.57;;;15.60;99.90;;;;;;4428626;28;656560;-66
2021/05/14 13:49:07;;;;;;;33.57;18.50;;;15.60;99.90;;;;;;4443108;28;656452;-66
2021/05/14 13:51:54;;;;;;;34.60;19.73;;;15.80;99.90;;;;;;4451842;28;656504;-67
2021/05/14 13:54:41;;;;;;;34.13;19.13;;;15.70;99.90;;;;;;4444188;28;657287;-66
2021/05/14 13:57:28;;;;;;;31.80;18.67;;;15.60;99.90;;;;;;4430388;28;656558;-66
2021/05/14 14:00:18;;;;;;;31.67;18.37;;;15.60;99.90;;;;;;4456518;28;657057;-65
2021/05/14 14:03:06;;;;;;;34.13;18.97;;;15.50;99.90;;;;;;4428278;28;657765;-65
2021/05/14 14:05:53;;;;;;;31.57;20.33;;;15.60;99.90;;;;;;4427029;28;656928;-66
2021/05/14 14:08:40;;;;;;;39.60;22.53;;;15.60;99.90;;;;;;4451334;28;657833;-66